Dixon, Missouri
Current Conditions -  °F | °C
As of 3:58 AM on Sunday 23 Nov 2014 (Local Time) from KTBN Reporting Station
Overcast Overcast  
Wind Chill: 51°   Ceiling: 3300
Heat Index: 51°   Visibility: 10mi
Dew Point: 49°   Wind: 7mph
Humidity: 94%   Direction: 160°SSE
Pressure: 29.71"   Gusts: NA
Location:  37.99°N, 92.09°W
Report Text: KTBN 230958Z AUTO 16006KT 10SM FEW026 BKN033 OVC130 11/10 A2971 RMK AO2 SLP062 T01070097
Loading
Personal Weather Stations






























Interactive Weather Map New forecast layout! Learn more

10-Day Weather Forecast

Advertisements
Track Severe Weather on mobile